Time;durP1;ratioP1;P1;durP2;ratioP2;P2;SDS_P1;SDS_P2;PMS_P1;PMS_P2;Temp;Humidity;BMP_temperature;BMP_pressure;BME280_temperature;BME280_humidity;BME280_pressure;Samples;Min_cycle;Max_cycle;Signal;HPM_P1;HPM_P2
2022/10/09 00:03:01;;;;;;;28.08;16.58;;;;;;;;;;5053198;28;20044;-68
2022/10/09 00:06:06;;;;;;;32.95;16.90;;;;;;;;;;5053163;28;20447;-69
2022/10/09 00:09:10;;;;;;;27.67;17.80;;;;;;;;;;5052638;28;20036;-69
2022/10/09 00:12:15;;;;;;;26.88;18.13;;;;;;;;;;5052741;28;20048;-69
2022/10/09 00:15:19;;;;;;;28.08;18.83;;;;;;;;;;5052632;28;20044;-69
2022/10/09 00:18:24;;;;;;;34.65;20.27;;;;;;;;;;5052594;28;20040;-69
2022/10/09 00:21:30;;;;;;;33.20;20.20;;;;;;;;;;5052463;28;20052;-69
2022/10/09 00:24:34;;;;;;;29.13;19.85;;;;;;;;;;5052700;28;20507;-68
2022/10/09 00:27:39;;;;;;;35.58;21.00;;;;;;;;;;5052242;28;20036;-68
2022/10/09 00:30:43;;;;;;;32.88;20.83;;;;;;;;;;5051778;28;20381;-69
2022/10/09 00:34:06;;;;;;;33.40;21.95;;;;;;;;;;5052250;28;20055;-68
2022/10/09 00:37:13;;;;;;;35.88;22.25;;;;;;;;;;5051767;28;20040;-69
2022/10/09 00:40:17;;;;;;;34.17;21.45;;;;;;;;;;5051968;28;20064;-69
2022/10/09 00:43:40;;;;;;;31.75;22.02;;;;;;;;;;5051175;28;20040;-69
2022/10/09 00:46:51;;;;;;;33.20;21.10;;;;;;;;;;5052233;28;20044;-68
2022/10/09 00:49:58;;;;;;;28.50;20.52;;;;;;;;;;5051881;28;20052;-68
2022/10/09 00:53:03;;;;;;;29.65;20.80;;;;;;;;;;5052087;28;20510;-69
2022/10/09 00:56:07;;;;;;;29.98;19.85;;;;;;;;;;5051967;28;20042;-68
2022/10/09 00:59:12;;;;;;;31.38;20.20;;;;;;;;;;5051547;28;20040;-69
2022/10/09 01:02:17;;;;;;;30.30;20.30;;;;;;;;;;5051954;28;20056;-69
2022/10/09 01:05:24;;;;;;;31.38;21.73;;;;;;;;;;5051685;28;20392;-69
2022/10/09 01:08:47;;;;;;;31.17;21.35;;;;;;;;;;5051840;28;20167;-68
2022/10/09 01:11:57;;;;;;;30.48;21.25;;;;;;;;;;5051836;28;20506;-68
2022/10/09 01:15:22;;;;;;;30.77;19.60;;;;;;;;;;5051356;28;20048;-69
2022/10/09 01:18:45;;;;;;;28.92;18.50;;;;;;;;;;5051717;28;20423;-68
2022/10/09 01:22:04;;;;;;;24.67;16.70;;;;;;;;;;5051544;28;20061;-69
2022/10/09 01:25:14;;;;;;;27.10;15.95;;;;;;;;;;5062328;28;20400;-68
2022/10/09 01:28:22;;;;;;;28.60;17.08;;;;;;;;;;5051296;28;20052;-68
2022/10/09 01:31:28;;;;;;;32.20;16.92;;;;;;;;;;5051530;28;20040;-69
2022/10/09 01:34:32;;;;;;;25.00;16.67;;;;;;;;;;5051402;28;20040;-68
2022/10/09 01:37:38;;;;;;;26.67;17.77;;;;;;;;;;5051478;28;20043;-69
2022/10/09 01:40:43;;;;;;;26.10;18.25;;;;;;;;;;5050883;28;20052;-68
2022/10/09 01:43:50;;;;;;;26.40;18.10;;;;;;;;;;5051022;28;20040;-68
2022/10/09 01:46:54;;;;;;;31.17;18.33;;;;;;;;;;5051062;28;20044;-69
2022/10/09 01:49:59;;;;;;;29.48;18.30;;;;;;;;;;5050473;28;20052;-69
2022/10/09 01:53:09;;;;;;;33.83;21.02;;;;;;;;;;5051100;28;20044;-68
2022/10/09 01:56:18;;;;;;;30.05;21.63;;;;;;;;;;5051070;28;20044;-68
2022/10/09 01:59:23;;;;;;;38.15;22.08;;;;;;;;;;5051026;28;20052;-69
2022/10/09 02:02:28;;;;;;;32.10;21.90;;;;;;;;;;5051159;28;20052;-68
2022/10/09 02:05:33;;;;;;;38.65;23.00;;;;;;;;;;5050668;28;20048;-68
2022/10/09 02:08:38;;;;;;;35.40;23.80;;;;;;;;;;5050824;28;20400;-68
2022/10/09 02:11:46;;;;;;;32.58;23.25;;;;;;;;;;5050795;28;20036;-68
2022/10/09 02:14:50;;;;;;;29.52;21.17;;;;;;;;;;5050873;28;20044;-69
2022/10/09 02:17:55;;;;;;;30.52;22.42;;;;;;;;;;5050505;28;20043;-68
2022/10/09 02:21:01;;;;;;;31.15;22.08;;;;;;;;;;5050371;28;20060;-68
2022/10/09 02:24:08;;;;;;;32.40;22.08;;;;;;;;;;5050869;28;20040;-68
2022/10/09 02:27:13;;;;;;;32.15;22.15;;;;;;;;;;5050169;28;20048;-68
2022/10/09 02:30:17;;;;;;;33.05;21.52;;;;;;;;;;5050851;28;20044;-68
2022/10/09 02:33:33;;;;;;;30.88;22.33;;;;;;;;;;5050657;28;20048;-68
2022/10/09 02:36:38;;;;;;;31.27;21.73;;;;;;;;;;5050693;28;20502;-69
2022/10/09 02:39:42;;;;;;;29.42;20.20;;;;;;;;;;5050765;28;20040;-68
2022/10/09 02:42:46;;;;;;;28.95;19.83;;;;;;;;;;5050761;28;20048;-69
2022/10/09 02:45:51;;;;;;;26.20;19.90;;;;;;;;;;5050682;28;20048;-68
2022/10/09 02:48:55;;;;;;;26.00;18.95;;;;;;;;;;5050332;28;20048;-69
2022/10/09 02:51:59;;;;;;;25.15;18.35;;;;;;;;;;5050461;28;20040;-69
2022/10/09 02:55:03;;;;;;;24.55;17.98;;;;;;;;;;5050629;28;20052;-68
2022/10/09 02:58:11;;;;;;;25.02;17.50;;;;;;;;;;5050718;28;20051;-68
2022/10/09 03:01:15;;;;;;;25.40;17.33;;;;;;;;;;5053147;28;20523;-69
2022/10/09 03:04:20;;;;;;;25.50;16.85;;;;;;;;;;5053986;28;20036;-69
2022/10/09 03:07:24;;;;;;;22.52;16.80;;;;;;;;;;5054221;28;20199;-69
2022/10/09 03:10:28;;;;;;;21.20;16.60;;;;;;;;;;5053891;28;20503;-69
2022/10/09 03:13:33;;;;;;;22.73;15.43;;;;;;;;;;5054083;28;20047;-69
2022/10/09 03:16:37;;;;;;;24.35;17.05;;;;;;;;;;5053749;28;20036;-69
2022/10/09 03:19:41;;;;;;;22.45;16.05;;;;;;;;;;5053825;28;20047;-69
2022/10/09 03:22:46;;;;;;;22.63;16.40;;;;;;;;;;5053055;28;20051;-69
2022/10/09 03:25:57;;;;;;;23.52;16.10;;;;;;;;;;5053795;28;20044;-69
2022/10/09 03:29:02;;;;;;;20.42;15.32;;;;;;;;;;5053778;28;20044;-69
2022/10/09 03:32:06;;;;;;;20.02;14.90;;;;;;;;;;5053924;28;20044;-69
2022/10/09 03:35:10;;;;;;;18.55;14.88;;;;;;;;;;5054360;28;20048;-68
2022/10/09 03:38:15;;;;;;;19.13;14.90;;;;;;;;;;5052894;28;20056;-68
2022/10/09 03:41:19;;;;;;;22.10;14.98;;;;;;;;;;5053307;28;20052;-68
2022/10/09 03:44:23;;;;;;;27.65;15.65;;;;;;;;;;5053608;28;20044;-68
2022/10/09 03:47:27;;;;;;;25.65;15.98;;;;;;;;;;5053517;28;20056;-68
2022/10/09 03:50:32;;;;;;;23.63;16.05;;;;;;;;;;5053512;28;20044;-68
2022/10/09 03:53:36;;;;;;;23.05;16.02;;;;;;;;;;5053549;28;20666;-69
2022/10/09 03:56:41;;;;;;;23.73;16.75;;;;;;;;;;5053335;28;20036;-68
2022/10/09 03:59:45;;;;;;;22.13;15.70;;;;;;;;;;5053109;28;20400;-68
2022/10/09 04:02:49;;;;;;;27.08;18.05;;;;;;;;;;5053120;28;20048;-68
2022/10/09 04:05:54;;;;;;;26.90;16.13;;;;;;;;;;5053009;28;20040;-69
2022/10/09 04:08:58;;;;;;;22.58;15.95;;;;;;;;;;5052951;28;20380;-68
2022/10/09 04:12:03;;;;;;;23.02;15.68;;;;;;;;;;5052448;28;20040;-68
2022/10/09 04:15:08;;;;;;;26.77;18.52;;;;;;;;;;5052612;28;20507;-68
2022/10/09 04:18:12;;;;;;;25.55;18.55;;;;;;;;;;5052654;28;20048;-68
2022/10/09 04:21:16;;;;;;;26.35;19.42;;;;;;;;;;5052456;28;20508;-68
2022/10/09 04:24:21;;;;;;;29.00;18.55;;;;;;;;;;5052368;28;20059;-69
2022/10/09 04:27:25;;;;;;;27.92;20.02;;;;;;;;;;5052277;28;20044;-68
2022/10/09 04:30:30;;;;;;;29.85;21.15;;;;;;;;;;5052233;28;20380;-69
2022/10/09 04:33:34;;;;;;;27.08;19.75;;;;;;;;;;5052177;28;20487;-68
2022/10/09 04:36:38;;;;;;;34.50;22.10;;;;;;;;;;5052485;28;20400;-68
2022/10/09 04:39:43;;;;;;;35.40;20.88;;;;;;;;;;5052043;28;20067;-68
2022/10/09 04:42:50;;;;;;;40.83;23.65;;;;;;;;;;5052275;28;20400;-68
2022/10/09 04:45:55;;;;;;;31.92;21.98;;;;;;;;;;5052162;28;20063;-69
2022/10/09 04:49:00;;;;;;;35.35;22.42;;;;;;;;;;5051719;28;20052;-68
2022/10/09 04:52:04;;;;;;;30.15;22.10;;;;;;;;;;5051121;28;20047;-69
2022/10/09 04:55:08;;;;;;;29.52;20.35;;;;;;;;;;5052004;28;20044;-68
2022/10/09 04:58:13;;;;;;;27.77;20.17;;;;;;;;;;5051964;28;20096;-68
2022/10/09 05:01:22;;;;;;;26.27;19.30;;;;;;;;;;5051589;28;20056;-69
2022/10/09 05:04:26;;;;;;;29.63;19.60;;;;;;;;;;5051720;28;20039;-68
2022/10/09 05:07:30;;;;;;;24.83;19.13;;;;;;;;;;5051702;28;20040;-68
2022/10/09 05:10:35;;;;;;;30.42;19.63;;;;;;;;;;5051865;28;20044;-68
2022/10/09 05:13:40;;;;;;;30.85;20.23;;;;;;;;;;5051487;28;20400;-68
2022/10/09 05:16:44;;;;;;;30.70;20.25;;;;;;;;;;5051345;28;20040;-68
2022/10/09 05:19:49;;;;;;;30.02;21.17;;;;;;;;;;5051508;28;20056;-68
2022/10/09 05:22:53;;;;;;;26.83;20.63;;;;;;;;;;5051290;28;20404;-68
2022/10/09 05:26:01;;;;;;;24.50;18.92;;;;;;;;;;5051173;28;20052;-68
2022/10/09 05:29:06;;;;;;;35.90;19.50;;;;;;;;;;5051417;28;20631;-68
2022/10/09 05:32:10;;;;;;;34.90;20.23;;;;;;;;;;5051556;28;20043;-69
2022/10/09 05:35:14;;;;;;;27.73;19.17;;;;;;;;;;5051308;28;20535;-69
2022/10/09 05:38:19;;;;;;;24.20;18.42;;;;;;;;;;5051449;28;20063;-69
2022/10/09 05:41:23;;;;;;;31.58;19.63;;;;;;;;;;5051192;28;20056;-69
2022/10/09 05:44:28;;;;;;;38.35;25.95;;;;;;;;;;5051096;28;20398;-68
2022/10/09 05:47:32;;;;;;;144.25;78.38;;;;;;;;;;5050812;28;20480;-68
2022/10/09 05:50:36;;;;;;;245.40;144.38;;;;;;;;;;5051078;28;20396;-69
2022/10/09 05:53:41;;;;;;;473.83;295.95;;;;;;;;;;5050964;28;20404;-69
2022/10/09 05:56:46;;;;;;;456.80;285.13;;;;;;;;;;5050938;28;20392;-69
2022/10/09 05:59:50;;;;;;;197.32;114.78;;;;;;;;;;5050601;28;20530;-69
2022/10/09 06:02:54;;;;;;;151.23;91.47;;;;;;;;;;5050696;28;20048;-69
2022/10/09 06:06:00;;;;;;;125.68;74.75;;;;;;;;;;5050632;28;20060;-69
2022/10/09 06:09:04;;;;;;;69.55;43.45;;;;;;;;;;5050805;28;20047;-69
2022/10/09 06:12:09;;;;;;;43.78;28.67;;;;;;;;;;5050026;28;20071;-69
2022/10/09 06:15:13;;;;;;;32.38;22.85;;;;;;;;;;5050958;28;20040;-69
2022/10/09 06:18:17;;;;;;;27.13;18.92;;;;;;;;;;5050619;28;20052;-69
2022/10/09 06:21:22;;;;;;;22.25;17.30;;;;;;;;;;5050615;28;20396;-69
2022/10/09 06:24:29;;;;;;;23.30;17.40;;;;;;;;;;5051807;28;20044;-69
2022/10/09 06:27:33;;;;;;;24.33;16.77;;;;;;;;;;5050513;28;20048;-70
2022/10/09 06:30:40;;;;;;;22.27;15.63;;;;;;;;;;5050673;28;20384;-69
2022/10/09 06:33:46;;;;;;;24.23;15.00;;;;;;;;;;5049182;28;20048;-69
2022/10/09 06:36:53;;;;;;;21.20;16.20;;;;;;;;;;5054463;28;20048;-69
2022/10/09 06:39:57;;;;;;;19.75;16.00;;;;;;;;;;5054528;28;20039;-69
2022/10/09 06:43:02;;;;;;;23.88;17.20;;;;;;;;;;5053571;28;20063;-69
2022/10/09 06:46:07;;;;;;;22.42;16.58;;;;;;;;;;5054445;28;20063;-69
2022/10/09 06:49:12;;;;;;;24.98;16.15;;;;;;;;;;5052715;28;20055;-69
2022/10/09 06:52:16;;;;;;;23.95;16.58;;;;;;;;;;5052657;28;20040;-69
2022/10/09 06:55:20;;;;;;;21.75;16.70;;;;;;;;;;5053356;28;20048;-69
2022/10/09 06:58:25;;;;;;;21.98;15.25;;;;;;;;;;5064246;28;20392;-69
2022/10/09 07:01:30;;;;;;;22.45;15.95;;;;;;;;;;5053385;28;20052;-69
2022/10/09 07:04:37;;;;;;;16.73;15.02;;;;;;;;;;5054271;28;20510;-69
2022/10/09 07:07:41;;;;;;;17.75;14.13;;;;;;;;;;5053937;28;20052;-69
2022/10/09 07:10:46;;;;;;;17.70;14.73;;;;;;;;;;5054130;28;20392;-69
2022/10/09 07:13:52;;;;;;;22.08;15.77;;;;;;;;;;5053094;28;20064;-69
2022/10/09 07:16:56;;;;;;;16.88;14.77;;;;;;;;;;5053828;28;20078;-70
2022/10/09 07:20:00;;;;;;;18.77;15.32;;;;;;;;;;5053553;28;20048;-69
2022/10/09 07:23:05;;;;;;;21.25;14.75;;;;;;;;;;5053968;28;20056;-69
2022/10/09 07:26:11;;;;;;;18.55;14.32;;;;;;;;;;5053608;28;20040;-69
2022/10/09 07:29:16;;;;;;;21.50;14.85;;;;;;;;;;5053742;28;20155;-69
2022/10/09 07:32:20;;;;;;;17.77;13.85;;;;;;;;;;5053648;28;20044;-69
2022/10/09 07:35:24;;;;;;;17.25;13.13;;;;;;;;;;5053850;28;20503;-69
2022/10/09 07:38:29;;;;;;;15.82;12.30;;;;;;;;;;5054509;28;20393;-69
2022/10/09 07:41:33;;;;;;;17.10;12.95;;;;;;;;;;5055361;28;20052;-69
2022/10/09 07:44:38;;;;;;;20.13;14.70;;;;;;;;;;5053973;28;20044;-69
2022/10/09 07:47:43;;;;;;;14.20;10.88;;;;;;;;;;5052684;28;20064;-69
2022/10/09 07:50:50;;;;;;;14.82;12.07;;;;;;;;;;5053693;28;20040;-69
2022/10/09 07:53:56;;;;;;;13.80;12.13;;;;;;;;;;5053154;28;20392;-69
2022/10/09 07:57:00;;;;;;;17.00;10.73;;;;;;;;;;5053073;28;20044;-69
2022/10/09 08:00:05;;;;;;;16.67;10.88;;;;;;;;;;5053037;28;20040;-69
2022/10/09 08:03:16;;;;;;;13.25;10.65;;;;;;;;;;5053104;28;20595;-69
2022/10/09 08:06:20;;;;;;;11.82;8.55;;;;;;;;;;5052924;28;20043;-69
2022/10/09 08:09:25;;;;;;;19.55;13.90;;;;;;;;;;5053330;28;20058;-70
2022/10/09 08:12:29;;;;;;;18.88;15.82;;;;;;;;;;5053155;28;20036;-70
2022/10/09 08:15:33;;;;;;;23.73;15.93;;;;;;;;;;5052942;28;20575;-70
2022/10/09 08:18:37;;;;;;;23.13;14.77;;;;;;;;;;5052711;28;20380;-69
2022/10/09 08:21:42;;;;;;;22.13;16.45;;;;;;;;;;5052732;28;20068;-70
2022/10/09 08:24:46;;;;;;;19.10;16.60;;;;;;;;;;5052442;28;20040;-69
2022/10/09 08:27:54;;;;;;;22.67;15.65;;;;;;;;;;5052544;28;20511;-69
2022/10/09 08:30:58;;;;;;;20.00;14.98;;;;;;;;;;5052681;28;20052;-69
2022/10/09 08:34:03;;;;;;;13.90;12.40;;;;;;;;;;5052760;28;20392;-69
2022/10/09 08:37:07;;;;;;;16.02;12.90;;;;;;;;;;5052491;28;20507;-69
2022/10/09 08:40:24;;;;;;;16.77;11.27;;;;;;;;;;5052025;28;20040;-69
2022/10/09 08:43:29;;;;;;;11.30;8.75;;;;;;;;;;5051992;28;20048;-70
2022/10/09 08:46:45;;;;;;;16.05;9.80;;;;;;;;;;5051867;28;20056;-69
2022/10/09 08:49:49;;;;;;;16.73;11.32;;;;;;;;;;5051798;28;20476;-69
2022/10/09 08:53:02;;;;;;;12.38;9.70;;;;;;;;;;5051763;28;20503;-69
2022/10/09 08:56:11;;;;;;;7.13;6.43;;;;;;;;;;5052001;28;20048;-70
2022/10/09 08:59:16;;;;;;;10.00;5.22;;;;;;;;;;5051862;28;20028;-70
2022/10/09 09:02:26;;;;;;;6.05;4.10;;;;;;;;;;5051439;28;20056;-69
2022/10/09 09:05:40;;;;;;;10.10;6.40;;;;;;;;;;5051895;28;20369;-70
2022/10/09 09:08:58;;;;;;;9.90;6.43;;;;;;;;;;5051724;28;20539;-69
2022/10/09 09:12:02;;;;;;;12.52;8.32;;;;;;;;;;5051634;28;20041;-69
2022/10/09 09:15:07;;;;;;;10.77;8.02;;;;;;;;;;5051550;28;20044;-69
2022/10/09 09:18:21;;;;;;;13.30;7.70;;;;;;;;;;5051375;28;20036;-69
2022/10/09 09:21:38;;;;;;;8.98;6.75;;;;;;;;;;5051244;28;20056;-69
2022/10/09 09:24:53;;;;;;;10.85;5.95;;;;;;;;;;5051269;28;20041;-69
2022/10/09 09:27:59;;;;;;;8.10;5.95;;;;;;;;;;5051133;28;20032;-69
2022/10/09 09:31:13;;;;;;;7.05;5.50;;;;;;;;;;5051459;28;20044;-69
2022/10/09 09:34:17;;;;;;;9.88;7.07;;;;;;;;;;5051210;28;20037;-69
2022/10/09 09:37:22;;;;;;;8.32;6.65;;;;;;;;;;5051291;28;20504;-69
2022/10/09 09:40:29;;;;;;;10.52;7.55;;;;;;;;;;5051291;28;20548;-69
2022/10/09 09:43:34;;;;;;;7.30;5.45;;;;;;;;;;5050917;28;20041;-69
2022/10/09 09:46:38;;;;;;;7.50;5.45;;;;;;;;;;5051008;28;20040;-68
2022/10/09 09:49:56;;;;;;;9.45;5.75;;;;;;;;;;5050917;28;20037;-69
2022/10/09 09:53:02;;;;;;;12.27;5.95;;;;;;;;;;5051236;28;20045;-68
2022/10/09 09:56:06;;;;;;;18.10;7.88;;;;;;;;;;5050914;28;20045;-69
2022/10/09 09:59:26;;;;;;;9.23;6.57;;;;;;;;;;5050985;28;20044;-69
2022/10/09 10:02:31;;;;;;;8.70;4.65;;;;;;;;;;5050766;28;20044;-69
2022/10/09 10:05:36;;;;;;;11.23;6.90;;;;;;;;;;5051122;28;20041;-69
2022/10/09 10:08:40;;;;;;;6.82;5.22;;;;;;;;;;5050792;28;20048;-69
2022/10/09 10:11:47;;;;;;;6.10;4.53;;;;;;;;;;5054832;28;20036;-69
2022/10/09 10:14:51;;;;;;;9.85;5.35;;;;;;;;;;5054959;28;20040;-69
2022/10/09 10:18:02;;;;;;;7.97;5.30;;;;;;;;;;5054750;28;20036;-69
2022/10/09 10:21:15;;;;;;;6.30;4.53;;;;;;;;;;5054472;28;20492;-69
2022/10/09 10:24:21;;;;;;;9.18;5.88;;;;;;;;;;5054884;28;20041;-69
2022/10/09 10:27:31;;;;;;;7.03;4.68;;;;;;;;;;5054653;28;20041;-70
2022/10/09 10:30:36;;;;;;;5.95;4.43;;;;;;;;;;5054539;28;20044;-69
2022/10/09 10:33:42;;;;;;;8.88;4.93;;;;;;;;;;5054779;28;20029;-68
2022/10/09 10:36:47;;;;;;;8.90;4.85;;;;;;;;;;5054545;28;20037;-68
2022/10/09 10:40:10;;;;;;;8.55;5.00;;;;;;;;;;5054177;28;20033;-68
2022/10/09 10:43:18;;;;;;;7.80;6.30;;;;;;;;;;5053531;28;20041;-70
2022/10/09 10:46:26;;;;;;;11.57;5.38;;;;;;;;;;5054323;28;20366;-71
2022/10/09 10:49:30;;;;;;;18.92;9.85;;;;;;;;;;5053510;28;20041;-70
2022/10/09 10:52:45;;;;;;;11.75;8.20;;;;;;;;;;5054272;28;20044;-70
2022/10/09 10:55:54;;;;;;;8.18;6.15;;;;;;;;;;5054085;28;20036;-68
2022/10/09 10:59:17;;;;;;;13.23;7.82;;;;;;;;;;5053945;28;20037;-68
2022/10/09 11:02:28;;;;;;;11.10;7.15;;;;;;;;;;5053838;28;20051;-69
2022/10/09 11:05:58;;;;;;;10.57;7.03;;;;;;;;;;5054131;28;20044;-69
2022/10/09 11:09:35;;;;;;;17.10;6.78;;;;;;;;;;5054124;28;20057;-69
2022/10/09 11:12:39;;;;;;;11.95;7.93;;;;;;;;;;5047463;28;20037;-69
2022/10/09 11:15:53;;;;;;;16.80;8.23;;;;;;;;;;5053391;28;20041;-69
2022/10/09 11:18:57;;;;;;;8.70;6.78;;;;;;;;;;5053848;28;20032;-68
2022/10/09 11:22:05;;;;;;;11.63;7.85;;;;;;;;;;5053678;28;20074;-69
2022/10/09 11:25:21;;;;;;;9.75;5.65;;;;;;;;;;5054195;28;20037;-69
2022/10/09 11:28:35;;;;;;;6.78;5.32;;;;;;;;;;5053522;28;20040;-68
2022/10/09 11:31:42;;;;;;;9.18;6.53;;;;;;;;;;5053522;28;20037;-69
2022/10/09 11:34:49;;;;;;;10.38;6.85;;;;;;;;;;5053693;28;20381;-69
2022/10/09 11:37:59;;;;;;;9.02;6.88;;;;;;;;;;5053534;28;20423;-69
2022/10/09 11:41:04;;;;;;;10.00;5.85;;;;;;;;;;5053680;28;20040;-68
2022/10/09 11:44:27;;;;;;;9.88;6.97;;;;;;;;;;5053629;28;20513;-68
2022/10/09 11:47:31;;;;;;;11.40;7.13;;;;;;;;;;5053418;28;20049;-68
2022/10/09 11:50:36;;;;;;;7.95;6.30;;;;;;;;;;5053255;28;20033;-69
2022/10/09 11:53:40;;;;;;;7.55;5.40;;;;;;;;;;5053036;28;20476;-69
2022/10/09 11:56:54;;;;;;;9.05;6.40;;;;;;;;;;5053124;28;20044;-69
2022/10/09 12:00:04;;;;;;;7.57;5.35;;;;;;;;;;5052904;28;20037;-68
2022/10/09 12:03:21;;;;;;;6.43;4.70;;;;;;;;;;5053037;28;20397;-69
2022/10/09 12:06:25;;;;;;;7.47;5.20;;;;;;;;;;5053198;28;20357;-69
2022/10/09 12:09:44;;;;;;;10.75;5.80;;;;;;;;;;5053027;28;20045;-69
2022/10/09 12:13:05;;;;;;;7.43;5.43;;;;;;;;;;5052812;28;20033;-69
2022/10/09 12:16:27;;;;;;;10.30;6.25;;;;;;;;;;5052210;28;20361;-69
2022/10/09 12:19:37;;;;;;;9.60;6.78;;;;;;;;;;5052616;28;20503;-69
2022/10/09 12:22:43;;;;;;;13.77;7.18;;;;;;;;;;5052577;28;20049;-69
2022/10/09 12:25:49;;;;;;;9.98;5.90;;;;;;;;;;5052763;28;20040;-69
2022/10/09 12:29:01;;;;;;;13.05;8.13;;;;;;;;;;5052684;28;20045;-69
2022/10/09 12:32:07;;;;;;;9.80;7.03;;;;;;;;;;5052488;28;20036;-68
2022/10/09 12:35:21;;;;;;;10.15;7.10;;;;;;;;;;5052618;28;20041;-69
2022/10/09 12:38:27;;;;;;;11.10;7.75;;;;;;;;;;5052249;28;20053;-69
2022/10/09 12:41:33;;;;;;;11.00;6.63;;;;;;;;;;5052101;28;20400;-69
2022/10/09 12:44:39;;;;;;;9.60;6.88;;;;;;;;;;5052160;28;20037;-69
2022/10/09 12:47:43;;;;;;;11.00;6.78;;;;;;;;;;5051999;28;20052;-69
2022/10/09 12:50:48;;;;;;;12.00;7.45;;;;;;;;;;5052125;28;20029;-69
2022/10/09 12:53:52;;;;;;;9.63;5.78;;;;;;;;;;5052382;28;20037;-69
2022/10/09 12:56:57;;;;;;;9.45;7.22;;;;;;;;;;5052034;28;20037;-69
2022/10/09 13:00:01;;;;;;;10.88;6.75;;;;;;;;;;5052226;28;20064;-69
2022/10/09 13:03:05;;;;;;;10.70;6.55;;;;;;;;;;5051871;28;20052;-69
2022/10/09 13:06:14;;;;;;;11.13;6.38;;;;;;;;;;5051874;28;20040;-71
2022/10/09 13:09:20;;;;;;;12.23;7.88;;;;;;;;;;5052190;28;20490;-71
2022/10/09 13:12:28;;;;;;;15.90;7.13;;;;;;;;;;5050918;28;20033;-71
2022/10/09 13:15:36;;;;;;;10.68;6.25;;;;;;;;;;5039411;28;20033;-71
2022/10/09 13:18:45;;;;;;;7.15;6.15;;;;;;;;;;5050793;28;20040;-71
2022/10/09 13:22:19;;;;;;;9.80;5.95;;;;;;;;;;5051751;28;20044;-73
2022/10/09 13:25:35;;;;;;;11.70;6.05;;;;;;;;;;5051633;28;20036;-71
2022/10/09 13:28:41;;;;;;;10.75;7.10;;;;;;;;;;5051699;28;20489;-72
2022/10/09 13:31:49;;;;;;;9.77;6.22;;;;;;;;;;5051494;28;20064;-71
2022/10/09 13:34:54;;;;;;;10.40;6.32;;;;;;;;;;5052037;28;20037;-70
2022/10/09 13:37:58;;;;;;;8.20;5.28;;;;;;;;;;5051478;28;20033;-71
2022/10/09 13:41:03;;;;;;;11.60;6.60;;;;;;;;;;5051296;28;20489;-69
2022/10/09 13:44:07;;;;;;;9.45;6.50;;;;;;;;;;5050722;28;20052;-72
2022/10/09 13:47:12;;;;;;;9.13;5.93;;;;;;;;;;5051022;28;20041;-71
2022/10/09 13:50:18;;;;;;;10.10;5.82;;;;;;;;;;5051455;28;20037;-71
2022/10/09 13:53:26;;;;;;;11.95;7.05;;;;;;;;;;5050876;28;20050;-72
2022/10/09 13:56:34;;;;;;;8.30;6.35;;;;;;;;;;5049492;28;20048;-72
2022/10/09 13:59:39;;;;;;;8.35;6.07;;;;;;;;;;5050475;28;20381;-70
2022/10/09 14:02:43;;;;;;;8.93;6.22;;;;;;;;;;5050773;28;20041;-71
2022/10/09 14:05:56;;;;;;;9.93;5.13;;;;;;;;;;5050958;28;20029;-71
2022/10/09 14:09:01;;;;;;;8.20;5.80;;;;;;;;;;5050586;28;20504;-71
2022/10/09 14:12:07;;;;;;;8.18;6.45;;;;;;;;;;5050870;28;20037;-71
2022/10/09 14:15:11;;;;;;;19.55;7.55;;;;;;;;;;5051004;28;20045;-70
2022/10/09 14:18:16;;;;;;;9.43;6.00;;;;;;;;;;5050889;28;20041;-72
2022/10/09 14:21:25;;;;;;;12.10;6.15;;;;;;;;;;5050704;28;20033;-72
2022/10/09 14:24:31;;;;;;;9.02;5.95;;;;;;;;;;5051250;28;20057;-71
2022/10/09 14:27:35;;;;;;;8.40;5.05;;;;;;;;;;5050830;28;20037;-70
2022/10/09 14:30:41;;;;;;;9.60;5.03;;;;;;;;;;5050325;28;20374;-71
2022/10/09 14:33:49;;;;;;;9.52;5.30;;;;;;;;;;5050918;28;20040;-71
2022/10/09 14:36:59;;;;;;;11.40;4.80;;;;;;;;;;5051100;28;20369;-72
2022/10/09 14:40:06;;;;;;;14.38;4.60;;;;;;;;;;5050882;28;20044;-70
2022/10/09 14:43:11;;;;;;;6.50;4.40;;;;;;;;;;5050572;28;20049;-71
2022/10/09 14:46:17;;;;;;;5.65;4.25;;;;;;;;;;5050641;28;20029;-70
2022/10/09 14:49:21;;;;;;;5.15;3.78;;;;;;;;;;5050613;28;20049;-71
2022/10/09 14:52:31;;;;;;;6.63;4.20;;;;;;;;;;5050712;28;20037;-71
2022/10/09 14:55:35;;;;;;;8.55;4.03;;;;;;;;;;5051052;28;20037;-71
2022/10/09 14:58:41;;;;;;;10.95;4.40;;;;;;;;;;5053703;28;20044;-71
2022/10/09 15:01:45;;;;;;;10.35;4.20;;;;;;;;;;5054581;28;20087;-71
2022/10/09 15:04:50;;;;;;;5.65;3.70;;;;;;;;;;5054325;28;20048;-70
2022/10/09 15:07:55;;;;;;;11.35;4.18;;;;;;;;;;5054227;28;20519;-71
2022/10/09 15:11:00;;;;;;;7.40;5.10;;;;;;;;;;5054292;28;20396;-71
2022/10/09 15:14:05;;;;;;;14.77;5.05;;;;;;;;;;5054175;28;20049;-71
2022/10/09 15:17:10;;;;;;;7.60;4.80;;;;;;;;;;5054039;28;20045;-69
2022/10/09 15:20:20;;;;;;;6.90;5.05;;;;;;;;;;5053802;28;20041;-72
2022/10/09 15:23:24;;;;;;;5.53;4.43;;;;;;;;;;5053845;28;20049;-71
2022/10/09 15:26:35;;;;;;;4.95;3.88;;;;;;;;;;5053896;28;20358;-71
2022/10/09 15:29:39;;;;;;;7.60;4.10;;;;;;;;;;5053818;28;20044;-71
2022/10/09 15:32:44;;;;;;;7.38;4.45;;;;;;;;;;5053803;28;20037;-71
2022/10/09 15:35:49;;;;;;;9.90;4.80;;;;;;;;;;5051971;28;20036;-71
2022/10/09 15:38:56;;;;;;;10.85;4.90;;;;;;;;;;5053533;28;20040;-72
2022/10/09 15:42:02;;;;;;;9.80;4.80;;;;;;;;;;5053175;28;20048;-71
2022/10/09 15:45:06;;;;;;;6.70;5.10;;;;;;;;;;5052527;28;20033;-71
2022/10/09 15:48:19;;;;;;;7.85;4.88;;;;;;;;;;5053100;28;20496;-71
2022/10/09 15:51:28;;;;;;;12.07;5.35;;;;;;;;;;5053428;28;20040;-71
2022/10/09 15:54:34;;;;;;;12.98;5.35;;;;;;;;;;5053297;28;20041;-71
2022/10/09 15:57:38;;;;;;;11.18;6.38;;;;;;;;;;5052718;28;20048;-71
2022/10/09 16:00:46;;;;;;;15.88;8.45;;;;;;;;;;5053237;28;20531;-71
2022/10/09 16:03:57;;;;;;;20.63;11.13;;;;;;;;;;5053229;28;20041;-72
2022/10/09 16:07:13;;;;;;;21.38;14.10;;;;;;;;;;5052735;28;20055;-71
2022/10/09 16:10:18;;;;;;;27.40;16.20;;;;;;;;;;5052974;28;20052;-71
2022/10/09 16:13:24;;;;;;;31.33;20.08;;;;;;;;;;5053278;28;20048;-71
2022/10/09 16:16:29;;;;;;;38.88;23.88;;;;;;;;;;5052847;28;20040;-71
2022/10/09 16:19:34;;;;;;;39.20;26.75;;;;;;;;;;5052496;28;20039;-71
2022/10/09 16:22:38;;;;;;;40.92;26.98;;;;;;;;;;5052733;28;20047;-71
2022/10/09 16:25:56;;;;;;;45.97;28.30;;;;;;;;;;5052895;28;20499;-71
2022/10/09 16:29:03;;;;;;;45.53;29.05;;;;;;;;;;5052471;28;20052;-71
2022/10/09 16:32:11;;;;;;;49.88;29.00;;;;;;;;;;5052815;28;20507;-72
2022/10/09 16:35:15;;;;;;;43.13;25.45;;;;;;;;;;5052892;28;20059;-72
2022/10/09 16:38:20;;;;;;;28.27;18.05;;;;;;;;;;5052398;28;20044;-71
2022/10/09 16:41:25;;;;;;;25.98;14.73;;;;;;;;;;5051760;28;20060;-72
2022/10/09 16:44:30;;;;;;;25.42;13.38;;;;;;;;;;5052842;28;20050;-72
2022/10/09 16:47:35;;;;;;;21.55;9.85;;;;;;;;;;5052224;28;20059;-69
2022/10/09 16:50:41;;;;;;;18.67;9.70;;;;;;;;;;5052147;28;20029;-72
2022/10/09 16:53:48;;;;;;;17.33;8.88;;;;;;;;;;5052270;28;20041;-72
2022/10/09 16:56:58;;;;;;;14.40;7.55;;;;;;;;;;5052167;28;20049;-71
2022/10/09 17:00:03;;;;;;;10.93;6.38;;;;;;;;;;5052294;28;20037;-70
2022/10/09 17:03:07;;;;;;;10.43;6.13;;;;;;;;;;5051813;28;20048;-71
2022/10/09 17:06:18;;;;;;;10.77;5.82;;;;;;;;;;5051984;28;20283;-72
2022/10/09 17:09:22;;;;;;;13.33;5.93;;;;;;;;;;5051898;28;20040;-72
2022/10/09 17:12:27;;;;;;;17.30;6.13;;;;;;;;;;5051935;28;20040;-71
2022/10/09 17:15:32;;;;;;;12.63;6.20;;;;;;;;;;5052281;28;20040;-72
2022/10/09 17:18:37;;;;;;;13.38;7.07;;;;;;;;;;5050992;28;20053;-71
2022/10/09 17:21:42;;;;;;;11.52;5.97;;;;;;;;;;5052197;28;20033;-71
2022/10/09 17:24:52;;;;;;;10.52;6.55;;;;;;;;;;5051807;28;20045;-71
2022/10/09 17:27:57;;;;;;;13.48;6.45;;;;;;;;;;5051559;28;20033;-71
2022/10/09 17:31:07;;;;;;;13.70;6.45;;;;;;;;;;5050763;28;20045;-71
2022/10/09 17:34:12;;;;;;;11.02;7.28;;;;;;;;;;5051312;28;20034;-71
2022/10/09 17:37:17;;;;;;;8.15;7.10;;;;;;;;;;5051428;28;20053;-71
2022/10/09 17:40:23;;;;;;;13.23;8.20;;;;;;;;;;5051808;28;20041;-73
2022/10/09 17:43:34;;;;;;;13.82;7.72;;;;;;;;;;5051283;28;20049;-70
2022/10/09 17:46:39;;;;;;;17.73;7.85;;;;;;;;;;5051062;28;20036;-72
2022/10/09 17:49:44;;;;;;;16.10;7.90;;;;;;;;;;5050445;28;20037;-71
2022/10/09 17:52:50;;;;;;;17.45;8.57;;;;;;;;;;5051417;28;20048;-71
2022/10/09 17:55:56;;;;;;;20.88;8.13;;;;;;;;;;5051334;28;20043;-72
2022/10/09 17:59:08;;;;;;;11.52;7.43;;;;;;;;;;5051431;28;20380;-72
2022/10/09 18:02:28;;;;;;;18.10;8.55;;;;;;;;;;5050875;28;20055;-72
2022/10/09 18:05:32;;;;;;;12.02;8.63;;;;;;;;;;5050303;28;20044;-71
2022/10/09 18:08:38;;;;;;;15.10;9.18;;;;;;;;;;5050793;28;20051;-71
2022/10/09 18:11:43;;;;;;;13.32;8.98;;;;;;;;;;5050269;28;20092;-70
2022/10/09 18:14:47;;;;;;;14.70;9.40;;;;;;;;;;5050527;28;20041;-70
2022/10/09 18:17:51;;;;;;;15.85;9.95;;;;;;;;;;5050642;28;20033;-69
2022/10/09 18:21:01;;;;;;;17.45;10.65;;;;;;;;;;5050465;28;20037;-69